Time;durP1;ratioP1;P1;durP2;ratioP2;P2;SDS_P1;SDS_P2;PMS_P1;PMS_P2;Temp;Humidity;BMP_temperature;BMP_pressure;BME280_temperature;BME280_humidity;BME280_pressure;Samples;Min_cycle;Max_cycle;Signal;HPM_P1;HPM_P2
2021/10/17 00:01:29;;;;;;;7.40;4.33;;;9.60;69.50;;;;;;5048293;28;20365;-90
2021/10/17 00:03:55;;;;;;;5.30;3.50;;;9.50;69.40;;;;;;5049962;28;20050;-90
2021/10/17 00:06:27;;;;;;;6.83;3.57;;;9.50;69.60;;;;;;5049785;28;20017;-91
2021/10/17 00:08:53;;;;;;;7.23;4.70;;;9.60;69.70;;;;;;5049582;28;20033;-91
2021/10/17 00:11:18;;;;;;;9.73;4.63;;;9.60;69.50;;;;;;5043673;28;20124;-91
2021/10/17 00:13:44;;;;;;;7.03;3.67;;;9.60;69.50;;;;;;5043733;28;20465;-91
2021/10/17 00:16:11;;;;;;;8.20;3.83;;;9.70;69.40;;;;;;5051912;28;20029;-90
2021/10/17 00:18:37;;;;;;;9.07;3.70;;;9.70;69.30;;;;;;5057547;28;20021;-90
2021/10/17 00:21:04;;;;;;;8.27;3.33;;;9.60;69.10;;;;;;5054074;28;20021;-92
2021/10/17 00:23:30;;;;;;;5.13;3.33;;;9.60;68.90;;;;;;5048262;28;20552;-90
2021/10/17 00:25:55;;;;;;;5.30;3.30;;;9.60;68.90;;;;;;5044906;28;20021;-91
2021/10/17 00:28:21;;;;;;;6.33;3.77;;;9.60;68.90;;;;;;5052792;28;20029;-91
2021/10/17 00:30:47;;;;;;;8.77;4.33;;;9.60;68.70;;;;;;5053072;28;20025;-91
2021/10/17 00:33:12;;;;;;;7.00;3.50;;;9.50;68.60;;;;;;5052090;28;20025;-91
2021/10/17 00:35:38;;;;;;;6.53;3.80;;;9.50;69.00;;;;;;5050475;28;20029;-91
2021/10/17 00:38:04;;;;;;;8.73;3.63;;;9.40;69.10;;;;;;5058235;28;20059;-91
2021/10/17 00:40:30;;;;;;;7.87;3.77;;;9.40;69.30;;;;;;5052731;28;20514;-90
2021/10/17 00:42:56;;;;;;;4.97;3.33;;;9.40;69.40;;;;;;5053697;28;20047;-91
2021/10/17 00:45:32;;;;;;;7.73;4.10;;;9.40;69.40;;;;;;5052973;28;20032;-90
2021/10/17 00:47:59;;;;;;;4.93;3.13;;;9.40;69.40;;;;;;5052092;28;20083;-90
2021/10/17 00:50:25;;;;;;;7.47;3.57;;;9.30;69.40;;;;;;5053782;28;20072;-91
2021/10/17 00:52:51;;;;;;;6.80;3.30;;;9.30;69.60;;;;;;5052280;28;20396;-90
2021/10/17 00:55:18;;;;;;;7.17;3.83;;;9.30;69.70;;;;;;5049534;28;20032;-90
2021/10/17 00:57:46;;;;;;;7.23;3.50;;;9.30;69.70;;;;;;5051698;28;20125;-90
2021/10/17 01:00:14;;;;;;;4.43;3.33;;;9.30;69.80;;;;;;5054121;28;20017;-91
2021/10/17 01:02:40;;;;;;;6.97;3.57;;;9.30;69.80;;;;;;5049829;28;20618;-90
2021/10/17 01:05:12;;;;;;;5.80;3.50;;;9.30;69.80;;;;;;5045775;28;20041;-91
2021/10/17 01:07:41;;;;;;;4.82;3.05;;;9.20;69.80;;;;;;5050201;28;20060;-91
2021/10/17 01:10:07;;;;;;;5.10;3.60;;;9.20;70.00;;;;;;5052121;28;20428;-90
2021/10/17 01:12:33;;;;;;;5.20;3.70;;;9.20;69.80;;;;;;5052485;28;20067;-90
2021/10/17 01:15:05;;;;;;;6.13;3.07;;;9.10;70.20;;;;;;5052231;28;20056;-91
2021/10/17 01:17:30;;;;;;;6.35;2.97;;;9.10;70.20;;;;;;5046055;28;20025;-91
2021/10/17 01:19:56;;;;;;;8.57;3.67;;;9.10;69.90;;;;;;5054670;28;20480;-91
2021/10/17 01:22:24;;;;;;;5.37;3.30;;;9.10;69.80;;;;;;5051839;28;20733;-91
2021/10/17 01:24:51;;;;;;;6.50;3.70;;;9.10;69.90;;;;;;5050689;28;20044;-90
2021/10/17 01:27:17;;;;;;;4.77;3.00;;;9.00;69.80;;;;;;5050869;28;20025;-91
2021/10/17 01:29:43;;;;;;;5.50;2.97;;;9.00;70.00;;;;;;5049557;28;20116;-91
2021/10/17 01:32:09;;;;;;;6.50;3.47;;;9.00;70.10;;;;;;5057567;28;20064;-91
2021/10/17 01:34:34;;;;;;;4.30;2.97;;;9.00;70.10;;;;;;5052138;28;20037;-91
2021/10/17 01:37:00;;;;;;;5.80;3.17;;;8.90;70.00;;;;;;5054780;28;20033;-91
2021/10/17 01:39:26;;;;;;;5.90;3.70;;;9.00;70.20;;;;;;5049390;28;20025;-90
2021/10/17 01:41:52;;;;;;;4.97;3.40;;;8.90;70.10;;;;;;5057391;28;20047;-91
2021/10/17 01:44:29;;;;;;;4.07;3.00;;;8.90;70.10;;;;;;5055067;28;20037;-90
2021/10/17 01:46:57;;;;;;;10.17;2.80;;;8.80;70.10;;;;;;5057137;28;20109;-90
2021/10/17 01:49:23;;;;;;;5.23;3.07;;;8.90;70.20;;;;;;5047888;28;20025;-90
2021/10/17 01:51:49;;;;;;;4.90;2.70;;;8.90;70.20;;;;;;5051811;28;20404;-90
2021/10/17 01:54:15;;;;;;;4.53;2.67;;;8.90;70.00;;;;;;5052541;28;20029;-90
2021/10/17 01:56:41;;;;;;;8.07;3.07;;;8.90;70.00;;;;;;5049989;28;20043;-89
2021/10/17 01:59:07;;;;;;;4.47;3.00;;;8.80;70.10;;;;;;5052799;28;20017;-91
2021/10/17 02:01:32;;;;;;;7.40;4.00;;;8.90;70.20;;;;;;5050699;28;20029;-91
2021/10/17 02:04:00;;;;;;;5.83;3.53;;;8.80;70.00;;;;;;5059399;28;20025;-90
2021/10/17 02:06:26;;;;;;;5.43;3.77;;;8.70;70.00;;;;;;5049769;28;20033;-91
2021/10/17 02:08:51;;;;;;;5.47;4.10;;;8.60;70.40;;;;;;5051841;28;20109;-90
2021/10/17 02:11:17;;;;;;;3.80;3.20;;;8.70;70.60;;;;;;5047552;28;20067;-90
2021/10/17 02:13:43;;;;;;;5.50;3.70;;;8.70;70.30;;;;;;5052634;28;20029;-89
2021/10/17 02:16:10;;;;;;;5.90;4.03;;;8.70;70.50;;;;;;5049511;28;20021;-89
2021/10/17 02:18:35;;;;;;;4.77;3.27;;;8.70;70.40;;;;;;5049674;28;20027;-90
2021/10/17 02:21:01;;;;;;;7.43;4.20;;;8.70;70.30;;;;;;5050004;28;20029;-89
2021/10/17 02:23:27;;;;;;;7.10;4.50;;;8.60;70.20;;;;;;5050117;28;20021;-90
2021/10/17 02:25:53;;;;;;;6.80;3.77;;;8.60;70.40;;;;;;5051648;28;20052;-90
2021/10/17 02:28:19;;;;;;;5.50;3.87;;;8.60;70.20;;;;;;5048406;28;20071;-91
2021/10/17 02:30:45;;;;;;;6.33;3.93;;;8.60;70.40;;;;;;5052505;28;20028;-90
2021/10/17 02:33:11;;;;;;;9.13;3.70;;;8.60;70.40;;;;;;5049533;28;20486;-89
2021/10/17 02:35:37;;;;;;;10.27;4.13;;;8.50;70.00;;;;;;5050397;28;20029;-91
2021/10/17 02:38:03;;;;;;;6.30;3.43;;;8.40;70.40;;;;;;5049027;28;20025;-89
2021/10/17 02:40:29;;;;;;;4.63;3.00;;;8.40;70.40;;;;;;5049102;28;20119;-90
2021/10/17 02:42:55;;;;;;;8.03;3.77;;;8.50;70.40;;;;;;5053341;28;20380;-91
2021/10/17 02:45:21;;;;;;;5.07;3.23;;;8.50;70.30;;;;;;5049831;28;20025;-90
2021/10/17 02:47:47;;;;;;;5.03;3.93;;;8.50;70.30;;;;;;5049553;28;20372;-91
2021/10/17 02:50:13;;;;;;;6.60;3.47;;;8.50;70.10;;;;;;5051262;28;20044;-91
2021/10/17 02:52:38;;;;;;;5.57;3.07;;;8.40;70.00;;;;;;5052445;28;20440;-91
2021/10/17 02:55:04;;;;;;;5.17;2.93;;;8.40;70.00;;;;;;5050154;28;20168;-89
2021/10/17 02:57:30;;;;;;;6.20;3.40;;;8.40;70.10;;;;;;5049214;28;20055;-90
2021/10/17 02:59:56;;;;;;;6.80;3.47;;;8.40;70.20;;;;;;5050054;28;20021;-90
2021/10/17 03:02:21;;;;;;;6.63;3.60;;;8.40;70.30;;;;;;5049710;28;20103;-90
2021/10/17 03:04:47;;;;;;;6.03;3.47;;;8.30;70.40;;;;;;5048392;28;20118;-91
2021/10/17 03:07:13;;;;;;;4.57;2.70;;;8.40;70.20;;;;;;5045039;28;20025;-90
2021/10/17 03:09:39;;;;;;;3.13;2.40;;;8.40;70.20;;;;;;5049463;28;20033;-89
2021/10/17 03:12:05;;;;;;;5.60;3.20;;;8.40;70.00;;;;;;5048119;28;20055;-90
2021/10/17 03:14:31;;;;;;;5.87;3.30;;;8.40;70.00;;;;;;5047619;28;20028;-89
2021/10/17 03:16:56;;;;;;;7.83;3.47;;;8.40;70.10;;;;;;5050192;28;20083;-90
2021/10/17 03:19:22;;;;;;;7.10;3.90;;;8.30;70.20;;;;;;5052087;28;20052;-90
2021/10/17 03:21:48;;;;;;;8.70;4.47;;;8.30;70.40;;;;;;5049899;28;20029;-89
2021/10/17 03:24:13;;;;;;;15.97;10.20;;;8.30;70.50;;;;;;5050563;28;20033;-90
2021/10/17 03:26:39;;;;;;;9.03;6.93;;;8.20;70.60;;;;;;5049353;28;20509;-90
2021/10/17 03:29:05;;;;;;;6.60;3.83;;;8.20;70.60;;;;;;5049510;28;20120;-89
2021/10/17 03:31:33;;;;;;;4.53;3.00;;;8.20;70.50;;;;;;5050072;28;20112;-90
2021/10/17 03:33:59;;;;;;;7.73;3.73;;;8.20;70.60;;;;;;5042583;28;20033;-90
2021/10/17 03:36:25;;;;;;;5.33;3.40;;;8.20;70.50;;;;;;5049727;28;20025;-90
2021/10/17 03:38:51;;;;;;;4.50;3.50;;;8.20;70.60;;;;;;5050269;28;20472;-90
2021/10/17 03:41:17;;;;;;;5.13;3.80;;;8.20;70.50;;;;;;5050603;28;20044;-90
2021/10/17 03:43:43;;;;;;;6.30;4.43;;;8.30;70.40;;;;;;5046934;28;20030;-89
2021/10/17 03:46:08;;;;;;;5.83;3.90;;;8.20;70.40;;;;;;5049730;28;20032;-90
2021/10/17 03:48:35;;;;;;;5.20;3.70;;;8.20;70.50;;;;;;5054589;28;20032;-91
2021/10/17 03:51:01;;;;;;;6.47;3.47;;;8.20;70.30;;;;;;5044830;28;20032;-90
2021/10/17 03:53:26;;;;;;;6.20;3.47;;;8.20;70.20;;;;;;5053258;28;20025;-91
2021/10/17 03:55:52;;;;;;;4.87;3.20;;;8.10;70.30;;;;;;5046389;28;20025;-91
2021/10/17 03:58:18;;;;;;;4.73;3.23;;;8.10;70.60;;;;;;5049553;28;20025;-90
2021/10/17 04:00:43;;;;;;;6.17;4.40;;;8.00;70.70;;;;;;5047667;28;20029;-90
2021/10/17 04:03:09;;;;;;;7.23;3.73;;;8.10;70.70;;;;;;5050077;28;20102;-90
2021/10/17 04:05:35;;;;;;;4.83;3.10;;;8.10;70.50;;;;;;5050873;28;20055;-90
2021/10/17 04:08:02;;;;;;;4.90;3.27;;;8.00;70.40;;;;;;5051120;28;20056;-90
2021/10/17 04:10:28;;;;;;;4.97;2.80;;;8.00;70.40;;;;;;5049941;28;20056;-89
2021/10/17 04:12:53;;;;;;;5.80;2.97;;;8.00;70.30;;;;;;5051116;28;20059;-90
2021/10/17 04:15:19;;;;;;;3.90;2.50;;;8.10;70.30;;;;;;5044439;28;20051;-91
2021/10/17 04:17:45;;;;;;;4.43;2.80;;;8.00;70.20;;;;;;5044277;28;20037;-90
2021/10/17 04:20:11;;;;;;;6.00;2.67;;;7.90;70.50;;;;;;5047427;28;20017;-90
2021/10/17 04:22:37;;;;;;;4.47;2.77;;;7.90;70.60;;;;;;5045883;28;20074;-90
2021/10/17 04:25:03;;;;;;;4.50;2.37;;;7.90;70.60;;;;;;5049045;28;20021;-90
2021/10/17 04:27:29;;;;;;;4.10;2.77;;;7.90;70.60;;;;;;5041819;28;20049;-90
2021/10/17 04:29:55;;;;;;;6.87;2.63;;;7.90;70.60;;;;;;5049583;28;20439;-89
2021/10/17 04:32:20;;;;;;;5.40;3.23;;;8.00;70.70;;;;;;5046233;28;20029;-89
2021/10/17 04:34:46;;;;;;;7.13;3.73;;;7.90;70.60;;;;;;5047805;28;20542;-90
2021/10/17 04:37:13;;;;;;;5.13;3.23;;;7.90;71.00;;;;;;5049379;28;20036;-91
2021/10/17 04:39:40;;;;;;;6.80;3.80;;;7.90;71.30;;;;;;5048887;28;20025;-90
2021/10/17 04:42:06;;;;;;;11.97;3.43;;;8.00;71.20;;;;;;5051631;28;20041;-91
2021/10/17 04:44:33;;;;;;;7.17;4.87;;;8.00;71.20;;;;;;5050239;28;20029;-92
2021/10/17 04:46:59;;;;;;;7.37;4.33;;;8.00;71.00;;;;;;5048972;28;20029;-91
2021/10/17 04:49:26;;;;;;;8.47;5.33;;;8.00;71.20;;;;;;5049905;28;20025;-90
2021/10/17 04:51:55;;;;;;;6.90;4.77;;;8.00;72.00;;;;;;5049700;28;20037;-91
2021/10/17 04:54:21;;;;;;;7.93;4.40;;;8.00;72.00;;;;;;5054765;28;20103;-90
2021/10/17 04:56:47;;;;;;;9.83;5.40;;;8.00;71.90;;;;;;5048771;28;20095;-91
2021/10/17 04:59:15;;;;;;;5.77;4.13;;;8.10;72.00;;;;;;5049667;28;20024;-90
2021/10/17 05:01:41;;;;;;;5.47;3.97;;;8.10;71.90;;;;;;5049014;28;20379;-92
2021/10/17 05:04:07;;;;;;;6.03;4.40;;;8.20;71.90;;;;;;5051951;28;20028;-89
2021/10/17 05:06:33;;;;;;;9.33;5.77;;;8.20;71.90;;;;;;5057136;28;20287;-90
2021/10/17 05:08:58;;;;;;;7.47;5.10;;;8.10;71.70;;;;;;5054083;28;20048;-89
2021/10/17 05:11:25;;;;;;;11.43;5.80;;;8.10;72.20;;;;;;5051274;28;20136;-91
2021/10/17 05:13:51;;;;;;;11.70;6.20;;;8.00;72.30;;;;;;5054806;28;20567;-91
2021/10/17 05:16:17;;;;;;;12.33;6.57;;;8.00;72.30;;;;;;5050011;28;20021;-91
2021/10/17 05:18:43;;;;;;;9.63;5.73;;;8.00;72.40;;;;;;5046363;28;20029;-90
2021/10/17 05:21:09;;;;;;;7.80;5.73;;;8.00;72.30;;;;;;5046792;28;20048;-90
2021/10/17 05:23:36;;;;;;;8.47;5.63;;;8.10;72.40;;;;;;5052582;28;20134;-90
2021/10/17 05:26:03;;;;;;;8.93;6.63;;;8.10;72.30;;;;;;5043024;28;20499;-91
2021/10/17 05:28:29;;;;;;;10.03;6.07;;;8.00;72.30;;;;;;5052851;28;20085;-90
2021/10/17 05:30:55;;;;;;;8.63;5.90;;;7.90;72.30;;;;;;5054028;28;20048;-89
2021/10/17 05:33:21;;;;;;;10.20;5.97;;;7.90;72.50;;;;;;5051272;28;20488;-91
2021/10/17 05:35:47;;;;;;;12.23;6.63;;;8.00;72.30;;;;;;5051568;28;20491;-91
2021/10/17 05:38:13;;;;;;;7.67;5.80;;;8.00;72.20;;;;;;5049022;28;20025;-91
2021/10/17 05:40:38;;;;;;;13.50;6.87;;;8.00;72.30;;;;;;5052561;28;20073;-91
2021/10/17 05:43:04;;;;;;;14.97;8.60;;;8.00;72.20;;;;;;5046869;28;20064;-90
2021/10/17 05:45:30;;;;;;;19.77;8.47;;;8.00;72.20;;;;;;5057769;28;20025;-90
2021/10/17 05:47:55;;;;;;;13.63;6.97;;;8.00;72.80;;;;;;5054871;28;20025;-91
2021/10/17 05:50:21;;;;;;;12.87;6.53;;;8.00;72.20;;;;;;5063041;28;20043;-91
2021/10/17 05:52:47;;;;;;;10.13;6.13;;;8.00;72.00;;;;;;5058060;28;20487;-91
2021/10/17 05:55:13;;;;;;;10.80;6.40;;;7.90;71.80;;;;;;5048042;28;20518;-90
2021/10/17 05:57:39;;;;;;;10.53;7.30;;;8.00;71.70;;;;;;5055169;28;20112;-89
2021/10/17 06:00:06;;;;;;;8.57;6.70;;;7.90;71.60;;;;;;5048869;28;20094;-89
2021/10/17 06:02:32;;;;;;;12.00;7.30;;;7.80;71.60;;;;;;5050879;28;20112;-89
2021/10/17 06:04:57;;;;;;;9.67;6.60;;;7.80;71.80;;;;;;5051040;28;20120;-89
2021/10/17 06:07:23;;;;;;;8.80;6.10;;;7.80;71.60;;;;;;5050113;28;20384;-89
2021/10/17 06:09:49;;;;;;;30.00;12.63;;;7.80;71.50;;;;;;5050563;28;20081;-89
2021/10/17 06:12:15;;;;;;;26.97;13.00;;;7.80;71.50;;;;;;5049464;28;20079;-89
2021/10/17 06:14:44;;;;;;;38.40;13.33;;;7.90;71.50;;;;;;5051382;28;20025;-89
2021/10/17 06:17:09;;;;;;;23.40;11.10;;;7.90;71.30;;;;;;5050936;28;20036;-89
2021/10/17 06:19:35;;;;;;;20.17;10.03;;;7.90;71.40;;;;;;5053605;28;20021;-90
2021/10/17 06:22:05;;;;;;;62.03;21.77;;;7.90;71.10;;;;;;5056924;28;20075;-90
2021/10/17 06:24:32;;;;;;;15.20;7.43;;;7.90;71.10;;;;;;5051446;28;20112;-90
2021/10/17 06:26:58;;;;;;;9.20;6.07;;;7.90;71.10;;;;;;5058396;28;20028;-91
2021/10/17 06:29:24;;;;;;;10.17;6.90;;;7.90;71.00;;;;;;5048310;28;20040;-90
2021/10/17 06:31:50;;;;;;;9.50;6.30;;;7.80;71.30;;;;;;5049956;28;20060;-92
2021/10/17 06:34:16;;;;;;;10.33;7.10;;;7.80;71.40;;;;;;5051605;28;20024;-90
2021/10/17 06:36:42;;;;;;;11.33;8.00;;;7.80;71.30;;;;;;5049949;28;20036;-90
2021/10/17 06:39:07;;;;;;;11.67;8.13;;;7.80;71.30;;;;;;5053599;28;20060;-91
2021/10/17 06:41:33;;;;;;;12.20;8.53;;;7.80;71.70;;;;;;5039306;28;20045;-90
2021/10/17 06:44:00;;;;;;;19.23;10.90;;;7.70;71.50;;;;;;5054583;28;20048;-90
2021/10/17 06:46:26;;;;;;;22.13;12.73;;;7.70;71.70;;;;;;5054057;28;20048;-90
2021/10/17 06:48:52;;;;;;;15.33;11.10;;;7.70;71.70;;;;;;5054884;28;20048;-91
2021/10/17 06:51:18;;;;;;;14.50;10.93;;;7.80;71.70;;;;;;5045045;28;20717;-91
2021/10/17 06:53:43;;;;;;;14.83;9.50;;;7.80;71.60;;;;;;5055537;28;20025;-91
2021/10/17 06:56:09;;;;;;;31.43;14.17;;;7.80;72.10;;;;;;5050917;28;20765;-91
2021/10/17 06:58:35;;;;;;;13.40;9.37;;;7.80;71.80;;;;;;5051510;28;20496;-91
2021/10/17 07:01:01;;;;;;;16.27;9.87;;;7.90;71.70;;;;;;5051401;28;20029;-91
2021/10/17 07:03:26;;;;;;;14.67;8.33;;;7.80;71.50;;;;;;5050641;28;20051;-89
2021/10/17 07:05:52;;;;;;;11.20;7.30;;;7.80;71.80;;;;;;5041317;28;20037;-90
2021/10/17 07:08:18;;;;;;;13.73;8.40;;;7.90;71.80;;;;;;5046122;28;20802;-89
2021/10/17 07:10:43;;;;;;;10.40;6.67;;;7.90;72.20;;;;;;5048311;28;20061;-89
2021/10/17 07:13:09;;;;;;;12.43;7.93;;;7.90;71.60;;;;;;5057708;28;20020;-89
2021/10/17 07:15:35;;;;;;;20.07;9.90;;;7.90;71.60;;;;;;5049211;28;20579;-90
2021/10/17 07:18:00;;;;;;;12.97;9.20;;;7.90;71.60;;;;;;5049674;28;20025;-89
2021/10/17 07:20:26;;;;;;;13.70;9.20;;;8.00;71.60;;;;;;5050745;28;20044;-89
2021/10/17 07:22:52;;;;;;;13.60;7.87;;;8.10;71.90;;;;;;5050200;28;20032;-89
2021/10/17 07:25:18;;;;;;;12.70;7.93;;;8.10;72.40;;;;;;5045014;28;20028;-90
2021/10/17 07:27:44;;;;;;;16.27;8.83;;;8.20;71.90;;;;;;5051358;28;20067;-90
2021/10/17 07:30:10;;;;;;;12.87;8.77;;;8.20;72.00;;;;;;5042908;28;20056;-90
2021/10/17 07:32:36;;;;;;;12.07;8.30;;;8.20;72.10;;;;;;5049575;28;20025;-89
2021/10/17 07:35:03;;;;;;;12.77;8.77;;;8.30;72.30;;;;;;5048367;28;20087;-88
2021/10/17 07:37:29;;;;;;;27.90;12.60;;;8.30;72.10;;;;;;5049563;28;20104;-89
2021/10/17 07:39:54;;;;;;;18.33;7.17;;;8.40;72.30;;;;;;5048085;28;20104;-90
2021/10/17 07:42:20;;;;;;;11.17;6.47;;;8.40;72.30;;;;;;5048378;28;20033;-89
2021/10/17 07:44:46;;;;;;;11.93;6.07;;;8.40;72.20;;;;;;5049495;28;20029;-89
2021/10/17 07:47:11;;;;;;;11.57;6.80;;;8.50;72.30;;;;;;5049580;28;20040;-90
2021/10/17 07:49:37;;;;;;;11.17;6.50;;;8.50;72.20;;;;;;5055691;28;20384;-90
2021/10/17 07:52:03;;;;;;;9.43;5.50;;;8.50;72.20;;;;;;5048533;28;20658;-90
2021/10/17 07:54:29;;;;;;;8.43;6.70;;;8.50;72.30;;;;;;5049630;28;20044;-89
2021/10/17 07:56:55;;;;;;;9.27;5.77;;;8.50;72.40;;;;;;5049348;28;20024;-90
2021/10/17 07:59:20;;;;;;;13.03;6.30;;;8.60;72.50;;;;;;5049710;28;20116;-89
2021/10/17 08:01:46;;;;;;;9.77;6.67;;;8.60;72.60;;;;;;5049072;28;20022;-89
2021/10/17 08:04:12;;;;;;;21.80;17.30;;;8.60;72.70;;;;;;5042151;28;20023;-89
2021/10/17 08:06:37;;;;;;;13.07;8.00;;;8.70;72.80;;;;;;5050585;28;20025;-89
2021/10/17 08:09:03;;;;;;;13.67;9.57;;;8.90;72.90;;;;;;5049191;28;20040;-90
2021/10/17 08:11:29;;;;;;;27.70;19.63;;;9.70;71.60;;;;;;5037159;28;20099;-90
2021/10/17 08:13:57;;;;;;;17.00;11.10;;;12.70;63.10;;;;;;5066286;28;20685;-89
2021/10/17 08:16:23;;;;;;;53.37;45.73;;;15.50;55.70;;;;;;5045834;28;20029;-89
2021/10/17 08:18:49;;;;;;;36.23;28.67;;;15.60;55.50;;;;;;5043547;28;20029;-90
2021/10/17 08:21:15;;;;;;;125.17;99.67;;;14.60;58.30;;;;;;5048290;28;20045;-88
2021/10/17 08:23:40;;;;;;;23.23;17.07;;;13.60;59.60;;;;;;5048677;28;20154;-89
2021/10/17 08:26:06;;;;;;;60.67;47.23;;;13.40;61.20;;;;;;5049808;28;20024;-89
2021/10/17 08:28:32;;;;;;;38.42;34.30;;;13.50;61.60;;;;;;5048587;28;20021;-89
2021/10/17 08:31:00;;;;;;;15.30;12.73;;;13.20;61.90;;;;;;5050053;28;20040;-90
2021/10/17 08:33:26;;;;;;;12.33;9.33;;;13.00;62.90;;;;;;5048777;28;20807;-89
2021/10/17 08:35:53;;;;;;;10.83;5.00;;;12.90;63.40;;;;;;5053788;28;20032;-89
2021/10/17 08:38:18;;;;;;;5.67;4.47;;;12.60;63.40;;;;;;5053387;28;20094;-89
2021/10/17 08:40:57;;;;;;;11.50;7.50;;;12.40;64.10;;;;;;5050642;28;20044;-89
2021/10/17 08:43:23;;;;;;;8.13;3.80;;;12.30;64.20;;;;;;5067587;28;20025;-89
2021/10/17 08:45:49;;;;;;;6.57;4.20;;;12.30;64.70;;;;;;5038636;28;20072;-89
2021/10/17 08:48:16;;;;;;;6.10;3.73;;;12.30;64.80;;;;;;5053572;28;20482;-90
2021/10/17 08:50:43;;;;;;;11.87;6.90;;;12.40;64.80;;;;;;5053034;28;20032;-89
2021/10/17 08:53:09;;;;;;;6.43;4.43;;;12.30;64.30;;;;;;5053652;28;20447;-89
2021/10/17 08:55:35;;;;;;;7.43;4.13;;;12.30;64.90;;;;;;5052936;28;20052;-90
2021/10/17 08:58:01;;;;;;;5.47;3.97;;;12.50;64.80;;;;;;5050602;28;20030;-90
2021/10/17 09:00:28;;;;;;;5.63;3.70;;;12.60;64.50;;;;;;5050461;28;20024;-90
2021/10/17 09:02:54;;;;;;;5.67;3.57;;;12.90;63.90;;;;;;5054371;28;20391;-91
2021/10/17 09:05:32;;;;;;;8.63;3.80;;;13.30;62.90;;;;;;5053367;28;20037;-91
2021/10/17 09:07:58;;;;;;;5.73;4.43;;;13.90;61.70;;;;;;5053480;28;20488;-89
2021/10/17 09:10:24;;;;;;;8.87;5.97;;;14.50;60.40;;;;;;5052447;28;20028;-89
2021/10/17 09:12:49;;;;;;;6.13;4.28;;;15.10;58.80;;;;;;5051158;28;20029;-89
2021/10/17 09:15:30;;;;;;;5.90;4.05;;;15.40;57.60;;;;;;5052995;28;20032;-89
2021/10/17 09:18:18;;;;;;;5.78;3.67;;;15.80;57.30;;;;;;5049611;28;20037;-89
2021/10/17 09:20:47;;;;;;;4.30;3.50;;;16.30;57.50;;;;;;5045647;28;20036;-89
2021/10/17 09:23:15;;;;;;;4.57;3.55;;;16.50;57.90;;;;;;5045610;28;20017;-89
2021/10/17 09:25:41;;;;;;;5.53;4.40;;;16.80;58.30;;;;;;5045972;28;20056;-88
2021/10/17 09:28:19;;;;;;;4.38;3.38;;;17.00;58.30;;;;;;5051344;28;20056;-89
2021/10/17 09:31:06;;;;;;;3.90;3.10;;;17.30;57.20;;;;;;5052197;28;20033;-88
2021/10/17 09:33:33;;;;;;;3.15;2.85;;;17.50;56.30;;;;;;5046422;28;20043;-87
2021/10/17 09:36:13;;;;;;;3.22;2.92;;;17.50;56.80;;;;;;5058733;28;20071;-90
2021/10/17 09:38:41;;;;;;;4.38;2.80;;;17.60;55.50;;;;;;5051781;28;20127;-88
2021/10/17 09:41:18;;;;;;;3.40;3.10;;;17.60;54.60;;;;;;5047715;28;20054;-88
2021/10/17 09:44:02;;;;;;;3.97;2.60;;;17.60;53.30;;;;;;5051307;28;20387;-88
2021/10/17 09:46:28;;;;;;;5.82;2.97;;;17.50;52.50;;;;;;5051266;28;20025;-88
2021/10/17 09:49:00;;;;;;;5.85;4.05;;;17.20;52.50;;;;;;5045756;28;20043;-88
2021/10/17 09:51:29;;;;;;;8.40;5.28;;;17.00;52.40;;;;;;5055987;28;20023;-88
2021/10/17 09:53:59;;;;;;;3.47;2.55;;;16.90;52.60;;;;;;5053659;28;20045;-89
2021/10/17 09:56:29;;;;;;;8.23;5.38;;;17.00;52.00;;;;;;5055190;28;20177;-90
2021/10/17 09:58:59;;;;;;;4.88;3.00;;;16.90;52.00;;;;;;5052411;28;20497;-91
2021/10/17 10:01:26;;;;;;;7.63;4.78;;;16.70;51.80;;;;;;5053800;28;20479;-89
2021/10/17 10:03:54;;;;;;;6.97;4.57;;;16.60;52.00;;;;;;5053266;28;20033;-90
2021/10/17 10:06:21;;;;;;;3.75;2.58;;;16.60;51.80;;;;;;5052993;28;20048;-90
2021/10/17 10:08:47;;;;;;;6.00;3.60;;;16.50;51.40;;;;;;5053136;28;20028;-89
2021/10/17 10:11:16;;;;;;;4.32;3.08;;;16.40;51.40;;;;;;5050831;28;20535;-90
2021/10/17 10:13:42;;;;;;;6.07;3.15;;;16.40;51.00;;;;;;5048861;28;20475;-90
2021/10/17 10:16:08;;;;;;;4.38;2.63;;;16.30;50.80;;;;;;5050171;28;20044;-90
2021/10/17 10:18:37;;;;;;;5.43;2.85;;;16.20;51.10;;;;;;5049370;28;20025;-90
2021/10/17 10:21:03;;;;;;;3.67;2.80;;;16.20;50.80;;;;;;5049410;28;20500;-90
2021/10/17 10:23:29;;;;;;;4.60;3.22;;;16.30;50.70;;;;;;5050191;28;20112;-90
2021/10/17 10:25:55;;;;;;;5.00;3.13;;;16.30;50.70;;;;;;5050222;28;20033;-90
2021/10/17 10:28:22;;;;;;;6.22;3.17;;;16.40;51.20;;;;;;5042879;28;20464;-90
2021/10/17 10:30:48;;;;;;;5.00;3.08;;;16.30;50.40;;;;;;5032381;28;20095;-90
2021/10/17 10:33:20;;;;;;;3.30;2.90;;;16.30;50.70;;;;;;5032255;28;20029;-90
2021/10/17 10:36:17;;;;;;;6.47;3.25;;;16.30;50.90;;;;;;5048256;28;20100;-89
2021/10/17 10:38:52;;;;;;;4.07;2.75;;;16.50;50.70;;;;;;5042344;28;20481;-91
2021/10/17 10:41:31;;;;;;;6.82;3.00;;;16.50;50.70;;;;;;5045697;28;20182;-90
2021/10/17 10:44:18;;;;;;;4.38;2.75;;;16.60;50.20;;;;;;5051644;28;20025;-92
2021/10/17 10:46:45;;;;;;;3.88;2.85;;;16.70;50.50;;;;;;5053077;28;20108;-91
2021/10/17 10:49:11;;;;;;;4.25;3.75;;;16.70;50.20;;;;;;5052177;28;20039;-90
2021/10/17 10:51:46;;;;;;;4.65;3.30;;;16.70;50.20;;;;;;5050956;28;20445;-90
2021/10/17 10:54:32;;;;;;;4.60;3.35;;;16.80;50.60;;;;;;5051724;28;20029;-91
2021/10/17 10:56:58;;;;;;;5.72;3.00;;;16.80;50.20;;;;;;5050903;28;20032;-90
2021/10/17 10:59:44;;;;;;;4.85;3.10;;;16.80;50.60;;;;;;5051005;28;20392;-90
2021/10/17 11:02:14;;;;;;;4.63;3.03;;;16.80;50.20;;;;;;5051191;28;20120;-90
2021/10/17 11:04:45;;;;;;;6.50;3.17;;;16.80;50.50;;;;;;5051337;28;20035;-91
2021/10/17 11:07:29;;;;;;;12.18;3.92;;;16.90;50.40;;;;;;5051412;28;20059;-91
2021/10/17 11:10:27;;;;;;;8.07;4.47;;;17.10;50.60;;;;;;5047521;28;20135;-91
2021/10/17 11:12:52;;;;;;;7.40;4.40;;;17.20;50.40;;;;;;5048165;28;20051;-91
2021/10/17 11:15:20;;;;;;;6.72;3.67;;;17.20;50.70;;;;;;5052796;28;20029;-91
2021/10/17 11:18:09;;;;;;;7.10;4.28;;;17.30;51.00;;;;;;5052460;28;21892;-91
2021/10/17 11:20:43;;;;;;;5.88;4.15;;;17.30;50.50;;;;;;5049617;28;20033;-90
2021/10/17 11:23:25;;;;;;;6.70;4.30;;;17.20;51.00;;;;;;5048677;28;20436;-91
2021/10/17 11:25:57;;;;;;;6.93;4.57;;;17.20;50.50;;;;;;5045963;28;20507;-91
2021/10/17 11:28:25;;;;;;;7.30;4.75;;;17.30;51.00;;;;;;5050530;28;20376;-92
2021/10/17 11:31:03;;;;;;;8.13;4.45;;;17.40;51.00;;;;;;5052756;28;20124;-91
2021/10/17 11:33:30;;;;;;;6.20;3.75;;;17.40;51.30;;;;;;5051657;28;20021;-91
2021/10/17 11:36:06;;;;;;;5.30;4.00;;;17.60;51.30;;;;;;5049048;28;20634;-91
2021/10/17 11:38:32;;;;;;;5.50;3.90;;;17.70;51.00;;;;;;5048890;28;20029;-91
2021/10/17 11:41:07;;;;;;;5.75;3.75;;;17.70;51.10;;;;;;5049728;28;20057;-91
2021/10/17 11:43:53;;;;;;;6.68;4.03;;;17.80;51.40;;;;;;5054387;28;21552;-91
2021/10/17 11:46:23;;;;;;;8.13;4.05;;;17.90;50.80;;;;;;5046712;28;20445;-91
2021/10/17 11:49:01;;;;;;;6.35;3.40;;;17.90;50.60;;;;;;5055707;28;20096;-91
2021/10/17 11:51:28;;;;;;;4.43;3.25;;;18.00;50.60;;;;;;5063803;28;20022;-91
2021/10/17 11:54:00;;;;;;;5.50;3.28;;;18.00;50.40;;;;;;5038841;28;20059;-91
2021/10/17 11:56:26;;;;;;;4.88;2.83;;;17.90;50.40;;;;;;5051405;28;20491;-91
2021/10/17 11:58:52;;;;;;;3.95;2.80;;;18.10;50.70;;;;;;5051537;28;20044;-91
2021/10/17 12:01:19;;;;;;;3.85;2.72;;;18.10;50.60;;;;;;5050623;28;20167;-91
2021/10/17 12:03:58;;;;;;;3.28;2.15;;;18.20;50.60;;;;;;5053938;28;20033;-92
2021/10/17 12:06:25;;;;;;;3.53;2.13;;;18.30;50.30;;;;;;5047627;28;20139;-92
2021/10/17 12:08:56;;;;;;;3.55;2.25;;;18.40;50.50;;;;;;5051816;28;20488;-91
2021/10/17 12:11:23;;;;;;;3.67;1.95;;;18.30;49.20;;;;;;5052119;28;20072;-90
2021/10/17 12:13:54;;;;;;;2.83;1.77;;;18.40;49.50;;;;;;5050178;28;20029;-91
2021/10/17 12:16:37;;;;;;;2.38;1.80;;;18.30;48.90;;;;;;5047986;28;20069;-92
2021/10/17 12:19:07;;;;;;;3.83;1.67;;;18.30;48.70;;;;;;5053131;28;20041;-91
2021/10/17 12:21:41;;;;;;;2.17;1.63;;;18.30;48.90;;;;;;5053744;28;20040;-92
2021/10/17 12:24:09;;;;;;;2.78;1.95;;;18.30;49.00;;;;;;5067801;28;20027;-91
2021/10/17 12:26:35;;;;;;;4.00;2.03;;;18.30;49.20;;;;;;5070114;28;20107;-92
2021/10/17 12:29:14;;;;;;;3.63;2.28;;;18.40;49.10;;;;;;5057685;28;20031;-91
2021/10/17 12:31:42;;;;;;;2.65;2.08;;;18.60;48.80;;;;;;5052322;28;20603;-91
2021/10/17 12:34:09;;;;;;;1.70;1.40;;;18.60;48.50;;;;;;5054355;28;20025;-90
2021/10/17 12:36:37;;;;;;;3.17;1.80;;;18.60;48.10;;;;;;5048079;28;20104;-92
2021/10/17 12:39:08;;;;;;;2.80;1.92;;;18.70;47.30;;;;;;5048270;28;20544;-91
2021/10/17 12:41:34;;;;;;;2.70;1.80;;;18.70;46.90;;;;;;5074432;28;20041;-91
2021/10/17 12:44:08;;;;;;;2.72;1.88;;;18.80;46.90;;;;;;5056023;28;20103;-91
2021/10/17 12:46:34;;;;;;;3.80;2.13;;;18.80;46.60;;;;;;5055382;28;20057;-90
2021/10/17 12:49:15;;;;;;;2.78;1.77;;;18.90;46.60;;;;;;5056086;28;20038;-91
2021/10/17 12:51:52;;;;;;;4.45;2.15;;;18.90;46.60;;;;;;5052430;28;20096;-90
2021/10/17 12:54:32;;;;;;;3.63;2.25;;;18.90;46.60;;;;;;5053887;28;20472;-90